Time;durP1;ratioP1;P1;durP2;ratioP2;P2;SDS_P1;SDS_P2;PMS_P1;PMS_P2;Temp;Humidity;BMP_temperature;BMP_pressure;BME280_temperature;BME280_humidity;BME280_pressure;Samples;Min_cycle;Max_cycle;Signal;HPM_P1;HPM_P2
2021/10/20 00:00:57;;;;;;;16.85;10.50;;;16.20;97.60;;;;;;4767161;30;20054;-91
2021/10/20 00:03:29;;;;;;;15.00;10.47;;;16.30;97.60;;;;;;4766095;29;20062;-92
2021/10/20 00:05:58;;;;;;;15.85;11.07;;;16.20;97.60;;;;;;4766083;30;20051;-90
2021/10/20 00:08:29;;;;;;;15.60;10.50;;;16.20;97.50;;;;;;4764294;30;20043;-92
2021/10/20 00:10:59;;;;;;;16.80;10.45;;;16.20;97.50;;;;;;4771665;30;20043;-88
2021/10/20 00:13:34;;;;;;;17.55;11.23;;;16.20;97.60;;;;;;4766289;30;20478;-90
2021/10/20 00:16:05;;;;;;;15.85;10.50;;;16.20;97.50;;;;;;4767798;30;20059;-90
2021/10/20 00:18:34;;;;;;;15.90;11.05;;;16.20;97.80;;;;;;4758586;30;20051;-90
2021/10/20 00:21:04;;;;;;;14.05;10.43;;;16.20;97.50;;;;;;4770616;30;20504;-90
2021/10/20 00:23:30;;;;;;;15.80;10.38;;;16.20;97.50;;;;;;4772422;30;20112;-91
2021/10/20 00:26:01;;;;;;;16.30;10.40;;;16.20;97.50;;;;;;4766749;30;20051;-91
2021/10/20 00:28:30;;;;;;;13.77;10.60;;;16.30;97.50;;;;;;4767906;29;20578;-90
2021/10/20 00:31:01;;;;;;;13.35;9.85;;;16.30;97.40;;;;;;4773878;30;20061;-91
2021/10/20 00:33:29;;;;;;;15.05;9.63;;;16.30;97.40;;;;;;4773723;30;20096;-90
2021/10/20 00:35:58;;;;;;;13.68;10.25;;;16.30;97.40;;;;;;4770946;30;20074;-89
2021/10/20 00:38:24;;;;;;;16.73;10.93;;;16.30;97.30;;;;;;4755586;30;20129;-90
2021/10/20 00:40:58;;;;;;;13.75;9.88;;;16.30;97.30;;;;;;4755120;30;20533;-90
2021/10/20 00:43:41;;;;;;;14.40;9.82;;;16.30;97.20;;;;;;4756498;30;20479;-90
2021/10/20 00:46:09;;;;;;;12.55;10.23;;;16.30;97.10;;;;;;4755209;30;20061;-92
2021/10/20 00:48:34;;;;;;;16.33;9.63;;;16.30;97.20;;;;;;4756318;30;20050;-90
2021/10/20 00:51:00;;;;;;;14.80;9.38;;;16.30;97.10;;;;;;4754761;30;20481;-90
2021/10/20 00:53:41;;;;;;;14.02;10.15;;;16.20;97.40;;;;;;4755748;30;20055;-90
2021/10/20 00:56:16;;;;;;;13.05;9.75;;;16.20;96.90;;;;;;4761889;30;20411;-90
2021/10/20 00:58:42;;;;;;;12.18;8.82;;;16.20;97.00;;;;;;4771610;30;20052;-90
2021/10/20 01:01:07;;;;;;;12.95;8.85;;;16.20;97.00;;;;;;4769425;30;20048;-91
2021/10/20 01:03:36;;;;;;;13.15;9.48;;;16.20;97.00;;;;;;4772758;30;20093;-90
2021/10/20 01:06:04;;;;;;;14.43;9.35;;;16.20;96.90;;;;;;4824548;24;20408;-91
2021/10/20 01:08:30;;;;;;;12.23;8.85;;;16.10;96.90;;;;;;4792534;29;20085;-91
2021/10/20 01:10:56;;;;;;;13.13;9.23;;;16.10;96.90;;;;;;4793758;29;20522;-92
2021/10/20 01:13:22;;;;;;;13.70;8.90;;;16.10;96.90;;;;;;4793224;29;20043;-92
2021/10/20 01:15:48;;;;;;;13.40;8.85;;;16.10;96.90;;;;;;4795994;24;20528;-91
2021/10/20 01:18:14;;;;;;;14.13;8.38;;;16.10;96.80;;;;;;4790394;29;20058;-91
2021/10/20 01:20:42;;;;;;;11.88;7.70;;;16.10;96.80;;;;;;4790117;29;20055;-90
2021/10/20 01:23:08;;;;;;;11.95;8.85;;;16.10;96.80;;;;;;4805031;29;20053;-90
2021/10/20 01:25:34;;;;;;;11.80;8.15;;;16.10;96.70;;;;;;4791716;29;20039;-91
2021/10/20 01:28:00;;;;;;;13.73;8.13;;;16.00;96.70;;;;;;4793799;29;20134;-91
2021/10/20 01:30:25;;;;;;;11.05;8.00;;;16.00;96.60;;;;;;4794213;29;20058;-90
2021/10/20 01:32:51;;;;;;;12.00;7.95;;;16.00;96.60;;;;;;4793097;29;20492;-90
2021/10/20 01:35:16;;;;;;;10.75;7.70;;;16.00;96.60;;;;;;4793847;29;20054;-90
2021/10/20 01:37:42;;;;;;;13.63;8.10;;;16.10;96.50;;;;;;4793524;29;20128;-89
2021/10/20 01:40:10;;;;;;;11.70;7.82;;;16.00;96.40;;;;;;4792817;29;20054;-89
2021/10/20 01:42:36;;;;;;;13.98;7.88;;;16.00;96.40;;;;;;4782787;29;20051;-90
2021/10/20 01:45:06;;;;;;;11.98;7.68;;;16.00;96.30;;;;;;4794236;29;20047;-90
2021/10/20 01:47:32;;;;;;;11.70;7.97;;;16.00;96.30;;;;;;4793113;29;20061;-90
2021/10/20 01:49:57;;;;;;;10.13;7.70;;;16.00;96.30;;;;;;4793718;29;20047;-90
2021/10/20 01:52:23;;;;;;;11.55;8.02;;;16.00;96.20;;;;;;4792992;29;20098;-90
2021/10/20 01:54:48;;;;;;;11.43;7.78;;;15.90;96.20;;;;;;4793086;29;20050;-91
2021/10/20 01:57:14;;;;;;;13.88;7.38;;;16.00;96.10;;;;;;4777723;29;20523;-90
2021/10/20 01:59:40;;;;;;;10.82;7.63;;;15.90;96.10;;;;;;4793066;29;20051;-90
2021/10/20 02:02:16;;;;;;;10.45;7.40;;;15.90;96.10;;;;;;4792778;29;20534;-89
2021/10/20 02:04:42;;;;;;;12.77;7.43;;;15.90;96.00;;;;;;4793491;29;20136;-90
2021/10/20 02:07:08;;;;;;;11.80;7.60;;;15.90;96.10;;;;;;4792870;29;20098;-90
2021/10/20 02:09:33;;;;;;;11.25;7.55;;;15.80;96.00;;;;;;4792827;29;20047;-90
2021/10/20 02:11:59;;;;;;;12.15;8.27;;;15.80;96.00;;;;;;4793890;29;20555;-90
2021/10/20 02:14:24;;;;;;;11.35;7.28;;;15.80;96.00;;;;;;4793638;29;20500;-89
2021/10/20 02:16:50;;;;;;;12.25;7.75;;;15.80;95.90;;;;;;4804618;29;20050;-89
2021/10/20 02:19:15;;;;;;;12.68;8.00;;;15.80;95.90;;;;;;4794006;29;20076;-90
2021/10/20 02:21:44;;;;;;;9.63;7.30;;;15.80;95.90;;;;;;4792693;29;20090;-90
2021/10/20 02:24:09;;;;;;;15.27;7.78;;;15.80;95.90;;;;;;4793988;29;20074;-90
2021/10/20 03:38:06;;;;;;;14.50;9.07;;;15.30;95.50;;;;;;4703097;30;20064;-90
2021/10/20 03:40:38;;;;;;;12.77;8.77;;;15.30;95.50;;;;;;4685592;30;20540;-90
2021/10/20 03:43:04;;;;;;;13.70;9.25;;;15.30;95.50;;;;;;4682833;30;20163;-92
2021/10/20 03:45:39;;;;;;;15.10;9.60;;;15.30;95.50;;;;;;4754178;30;20084;-91
2021/10/20 03:48:05;;;;;;;15.63;8.80;;;15.30;95.30;;;;;;4753994;30;20051;-91
2021/10/20 03:50:31;;;;;;;13.75;9.13;;;15.30;95.40;;;;;;4748818;30;20162;-90
2021/10/20 03:52:56;;;;;;;15.52;10.23;;;15.30;95.30;;;;;;4775845;29;20571;-90
2021/10/20 03:55:23;;;;;;;13.32;9.35;;;15.30;95.30;;;;;;4800401;29;20092;-91
2021/10/20 03:57:48;;;;;;;13.07;9.45;;;15.30;95.60;;;;;;4805429;29;20138;-90
2021/10/20 04:00:17;;;;;;;12.90;8.90;;;15.30;95.20;;;;;;4797647;29;20122;-90
2021/10/20 04:03:00;;;;;;;17.05;10.30;;;15.30;95.20;;;;;;4798449;29;20054;-90
2021/10/20 04:05:26;;;;;;;17.92;9.82;;;15.30;95.10;;;;;;4795916;29;20053;-91
2021/10/20 04:07:52;;;;;;;16.95;9.88;;;15.30;95.20;;;;;;4803571;29;20038;-90
2021/10/20 04:10:23;;;;;;;15.07;10.48;;;15.30;95.20;;;;;;4799100;29;20424;-90
2021/10/20 04:12:50;;;;;;;15.93;10.70;;;15.30;95.10;;;;;;4805285;29;20059;-90
2021/10/20 04:15:19;;;;;;;17.13;10.23;;;15.30;95.10;;;;;;4796048;29;20112;-90
2021/10/20 04:17:44;;;;;;;18.63;10.07;;;15.30;95.10;;;;;;4798008;29;20046;-90
2021/10/20 04:20:12;;;;;;;18.27;10.40;;;15.30;95.10;;;;;;4808986;29;20054;-90
2021/10/20 04:22:38;;;;;;;17.95;10.45;;;15.30;95.00;;;;;;4791419;29;20065;-90
2021/10/20 04:25:06;;;;;;;16.98;10.32;;;15.30;95.00;;;;;;4822053;24;20488;-91
2021/10/20 04:27:32;;;;;;;16.77;10.05;;;15.30;94.90;;;;;;4790071;29;20047;-90
2021/10/20 04:29:59;;;;;;;16.48;10.35;;;15.30;95.00;;;;;;4791061;29;20054;-91
2021/10/20 04:32:25;;;;;;;13.32;10.07;;;15.30;95.00;;;;;;4790561;29;20046;-90
2021/10/20 04:34:51;;;;;;;14.30;10.43;;;15.30;94.90;;;;;;4790623;29;20061;-91
2021/10/20 04:37:23;;;;;;;14.82;10.45;;;15.30;94.90;;;;;;4791320;29;20050;-89
2021/10/20 04:39:49;;;;;;;15.25;10.15;;;15.30;94.80;;;;;;4790204;29;20051;-90
2021/10/20 04:42:15;;;;;;;17.08;11.52;;;15.30;94.80;;;;;;4789685;29;20134;-89
2021/10/20 04:44:41;;;;;;;15.52;10.43;;;15.30;94.80;;;;;;4790629;29;20129;-90
2021/10/20 04:47:06;;;;;;;14.90;10.52;;;15.30;94.70;;;;;;4790671;29;20461;-89
2021/10/20 04:49:37;;;;;;;15.52;10.10;;;15.30;94.70;;;;;;4790816;29;20047;-90
2021/10/20 05:33:55;;;;;;;16.23;12.13;;;15.30;94.50;;;;;;4787489;29;20078;-83
2021/10/20 05:36:23;;;;;;;17.83;11.70;;;15.40;94.40;;;;;;4789869;29;20091;-83
2021/10/20 05:38:48;;;;;;;17.85;11.82;;;15.40;94.30;;;;;;4789193;29;20051;-83
2021/10/20 05:41:14;;;;;;;18.35;12.45;;;15.40;94.20;;;;;;4803453;29;20130;-90
2021/10/20 05:43:39;;;;;;;18.00;12.45;;;15.40;94.00;;;;;;4808709;29;20456;-90
2021/10/20 05:46:05;;;;;;;18.70;13.25;;;15.40;94.00;;;;;;4795949;29;20106;-87
2021/10/20 05:48:31;;;;;;;17.40;12.32;;;15.40;93.90;;;;;;4789657;29;20389;-87
2021/10/20 05:50:56;;;;;;;18.27;12.00;;;15.40;93.90;;;;;;4789993;29;20054;-88
2021/10/20 05:53:22;;;;;;;21.05;13.25;;;15.50;93.90;;;;;;4788615;29;20082;-87
2021/10/20 05:55:47;;;;;;;19.70;13.10;;;15.50;93.80;;;;;;4789181;29;20047;-87
2021/10/20 05:58:13;;;;;;;17.95;12.40;;;15.50;93.80;;;;;;4789885;29;20038;-89
2021/10/20 06:00:42;;;;;;;17.35;12.75;;;15.50;93.80;;;;;;4790327;29;20058;-87
2021/10/20 06:05:37;;;;;;;16.45;12.48;;;15.60;93.80;;;;;;5029481;24;20153;-88
2021/10/20 06:22:59;;;;;;;20.40;12.45;;;15.70;93.80;;;;;;4757992;24;20460;-87
2021/10/20 06:25:25;;;;;;;18.20;11.77;;;15.70;93.80;;;;;;4778782;29;20488;-86
2021/10/20 06:28:00;;;;;;;16.88;11.77;;;15.70;94.00;;;;;;4791341;29;20103;-85
2021/10/20 06:30:34;;;;;;;14.48;11.48;;;15.80;94.10;;;;;;4805335;29;20176;-88
2021/10/20 06:33:10;;;;;;;16.15;11.50;;;15.80;94.10;;;;;;4779018;29;20087;-87
2021/10/20 06:35:45;;;;;;;19.33;12.75;;;15.80;94.20;;;;;;4773630;29;20055;-87
2021/10/20 06:38:31;;;;;;;19.00;13.20;;;15.80;94.20;;;;;;4774956;30;20063;-87
2021/10/20 06:52:32;;;;;;;20.10;13.88;;;15.80;94.60;;;;;;4654536;30;20113;-86
2021/10/20 06:55:10;;;;;;;22.90;15.27;;;15.80;94.90;;;;;;4695422;30;20145;-85
2021/10/20 06:57:44;;;;;;;22.35;14.70;;;15.80;95.20;;;;;;4719924;30;20131;-85
2021/10/20 07:00:11;;;;;;;23.65;16.35;;;15.80;95.40;;;;;;4777260;29;20048;-86
2021/10/20 07:22:33;;;;;;;;;;;;;;;;;;;;;
2021/10/20 07:26:15;;;;;;;;;;;;;;;;;;;;;
2021/10/20 07:33:20;;;;;;;16.52;11.32;;;15.60;95.60;;;;;;4646265;30;20057;-87
2021/10/20 07:39:12;;;;;;;17.88;10.98;;;15.50;95.60;;;;;;4680054;30;20197;-86
2021/10/20 08:06:19;;;;;;;;;;;;;;;;;;;;;
2021/10/20 08:09:46;;;;;;;;;;;;;;;;;;;;;
2021/10/20 08:12:45;;;;;;;14.93;11.40;;;15.80;96.00;;;;;;4696747;30;20052;-85
2021/10/20 08:15:35;;;;;;;15.18;10.57;;;15.80;96.20;;;;;;4711101;30;20518;-83
2021/10/20 08:18:03;;;;;;;13.45;9.75;;;15.80;96.20;;;;;;4705867;30;20057;-82
2021/10/20 08:20:46;;;;;;;14.98;10.02;;;15.80;96.30;;;;;;4712185;30;20080;-84
2021/10/20 08:23:32;;;;;;;14.40;9.70;;;15.80;96.20;;;;;;4701147;30;20066;-83
2021/10/20 08:26:04;;;;;;;13.60;9.40;;;15.80;96.20;;;;;;4741844;30;20107;-83
2021/10/20 08:29:16;;;;;;;14.27;9.95;;;15.80;96.10;;;;;;4771081;30;20051;-83
2021/10/20 08:31:42;;;;;;;13.18;9.15;;;15.80;95.90;;;;;;4750908;30;20441;-83
2021/10/20 08:37:20;;;;;;;16.75;9.00;;;15.80;96.00;;;;;;4740845;30;20171;-83
2021/10/20 08:39:46;;;;;;;13.65;8.60;;;15.80;95.90;;;;;;4760169;30;20059;-84
2021/10/20 08:42:12;;;;;;;12.10;8.70;;;15.80;95.90;;;;;;4771712;30;20051;-83
2021/10/20 08:44:38;;;;;;;13.45;8.85;;;15.90;95.90;;;;;;4771175;30;20145;-83
2021/10/20 08:47:04;;;;;;;11.20;8.02;;;15.90;95.80;;;;;;4772308;30;20047;-84
2021/10/20 08:49:31;;;;;;;11.90;8.27;;;15.90;95.80;;;;;;4771505;30;20116;-83
2021/10/20 08:51:57;;;;;;;11.88;8.02;;;15.90;95.70;;;;;;4772516;30;20047;-83
2021/10/20 08:54:22;;;;;;;12.70;7.75;;;15.90;95.70;;;;;;4772199;30;20516;-83
2021/10/20 08:56:48;;;;;;;11.15;8.07;;;16.00;95.70;;;;;;4768442;29;20113;-83
2021/10/20 08:59:15;;;;;;;10.93;8.00;;;16.00;95.60;;;;;;4771904;30;20059;-84
2021/10/20 09:01:41;;;;;;;11.45;7.45;;;16.00;95.60;;;;;;4771294;29;20142;-82
2021/10/20 09:04:09;;;;;;;12.05;7.38;;;16.00;95.60;;;;;;4782237;30;20058;-82
2021/10/20 09:06:35;;;;;;;12.13;7.30;;;16.10;95.60;;;;;;4786426;30;20134;-83
2021/10/20 09:09:04;;;;;;;12.07;7.70;;;16.10;95.60;;;;;;4774497;30;20047;-82
2021/10/20 09:11:33;;;;;;;11.85;7.32;;;16.10;95.50;;;;;;4782759;29;20054;-83
2021/10/20 09:14:04;;;;;;;14.10;7.70;;;16.10;95.50;;;;;;4767288;29;20058;-83
2021/10/20 09:16:31;;;;;;;11.32;7.20;;;16.10;95.50;;;;;;4768876;29;20945;-82
2021/10/20 09:18:59;;;;;;;11.57;7.25;;;16.10;95.50;;;;;;4776053;29;20504;-82
2021/10/20 09:21:26;;;;;;;11.80;7.68;;;16.20;95.50;;;;;;4769744;29;20082;-82
2021/10/20 09:24:08;;;;;;;9.57;7.30;;;16.20;95.50;;;;;;4770874;30;20051;-82
2021/10/20 09:26:33;;;;;;;11.13;7.35;;;16.10;95.50;;;;;;4771660;30;20086;-81
2021/10/20 09:28:59;;;;;;;13.73;8.32;;;16.10;95.50;;;;;;4772130;30;20083;-83
2021/10/20 09:31:26;;;;;;;9.65;7.57;;;16.10;95.50;;;;;;4767569;30;20048;-82
2021/10/20 09:33:51;;;;;;;10.50;7.55;;;16.20;95.60;;;;;;4771352;30;20401;-82
2021/10/20 09:36:21;;;;;;;12.02;7.70;;;16.20;95.60;;;;;;4771546;29;20051;-83
2021/10/20 09:38:49;;;;;;;11.55;8.23;;;16.20;95.60;;;;;;4784939;29;20052;-87
2021/10/20 09:41:16;;;;;;;10.65;7.47;;;16.20;95.60;;;;;;4772018;30;20052;-85
2021/10/20 09:58:17;;;;;;;11.80;7.78;;;16.30;95.70;;;;;;4827608;29;20206;-87
2021/10/20 10:04:35;;;;;;;10.95;7.80;;;16.40;95.60;;;;;;4748164;30;20120;-87
2021/10/20 10:48:36;;;;;;;9.85;7.43;;;16.70;95.30;;;;;;4647545;30;20464;-84
2021/10/20 10:51:13;;;;;;;12.02;7.63;;;16.70;95.30;;;;;;4633554;30;20058;-84
2021/10/20 10:54:12;;;;;;;13.73;7.65;;;16.70;95.20;;;;;;4667894;30;20442;-85
2021/10/20 11:00:29;;;;;;;11.23;8.13;;;16.70;95.20;;;;;;4694214;30;20434;-85
2021/10/20 11:03:21;;;;;;;10.85;8.05;;;16.80;95.40;;;;;;4714440;29;20064;-85
2021/10/20 11:06:34;;;;;;;12.27;8.00;;;16.70;95.50;;;;;;4800179;29;20054;-85
2021/10/20 11:09:09;;;;;;;11.18;7.97;;;16.80;95.60;;;;;;4799688;29;20381;-83
2021/10/20 11:11:34;;;;;;;11.75;8.25;;;16.70;95.80;;;;;;4803446;29;20122;-85
2021/10/20 11:14:01;;;;;;;13.07;8.25;;;16.70;96.00;;;;;;4806148;29;20121;-84
2021/10/20 11:16:35;;;;;;;10.55;8.45;;;16.70;96.10;;;;;;4809893;29;20057;-85
2021/10/20 11:19:13;;;;;;;11.30;8.85;;;16.70;96.50;;;;;;4806137;29;20050;-84
2021/10/20 11:33:27;;;;;;;;;;;;;;;;;;;;;
2021/10/20 11:47:48;;;;;;;10.48;6.75;;;16.50;96.30;;;;;;4820554;29;20329;-89
2021/10/20 11:58:38;;;;;;;11.40;6.32;;;16.60;96.20;;;;;;4768696;30;20110;-87
2021/10/20 12:54:18;;;;;;;10.55;4.78;;;17.00;95.40;;;;;;4646128;30;20088;-88
2021/10/20 13:05:31;;;;;;;12.63;4.85;;;17.10;95.20;;;;;;4771265;30;20050;-88
2021/10/20 13:47:16;;;;;;;13.15;4.95;;;17.20;94.80;;;;;;4809702;29;20092;-89
2021/10/20 13:49:41;;;;;;;13.48;4.97;;;17.30;94.70;;;;;;4793337;29;20043;-89
2021/10/20 13:52:07;;;;;;;11.90;4.65;;;17.30;94.70;;;;;;4792698;29;20095;-89
2021/10/20 13:54:51;;;;;;;10.98;4.53;;;17.30;94.80;;;;;;4793194;29;20050;-89
2021/10/20 14:08:38;;;;;;;10.30;4.03;;;17.30;94.40;;;;;;4761859;30;20080;-90
2021/10/20 14:15:09;;;;;;;12.90;4.03;;;17.30;94.30;;;;;;4766623;30;20143;-90
2021/10/20 14:17:36;;;;;;;12.30;4.55;;;17.30;94.40;;;;;;4738153;30;20068;-88
2021/10/20 14:24:58;;;;;;;;;;;;;;;;;;;;;
2021/10/20 14:33:35;;;;;;;9.65;3.70;;;17.30;94.20;;;;;;4640012;30;20448;-89
2021/10/20 15:04:36;;;;;;;11.98;3.17;;;17.30;94.10;;;;;;4700592;30;20060;-88
2021/10/20 15:07:33;;;;;;;16.17;3.70;;;17.30;94.00;;;;;;4716064;30;20057;-92
2021/10/20 15:19:58;;;;;;;12.82;3.47;;;17.20;93.90;;;;;;4827763;29;20046;-90
2021/10/20 16:15:45;;;;;;;11.65;3.28;;;17.00;94.00;;;;;;4968453;24;20051;-83
2021/10/20 16:19:08;;;;;;;9.38;2.90;;;16.90;93.90;;;;;;4794886;29;20043;-87
2021/10/20 16:22:37;;;;;;;;;;;;;;;;;;;;;
2021/10/20 16:44:33;;;;;;;9.77;3.00;;;16.60;93.90;;;;;;4697819;30;19986;-87
2021/10/20 16:52:50;;;;;;;12.50;3.33;;;16.70;94.70;;;;;;4823507;29;20058;-86
2021/10/20 16:55:56;;;;;;;10.65;3.38;;;16.70;94.70;;;;;;4793138;29;20082;-86
2021/10/20 16:58:53;;;;;;;9.77;2.97;;;16.60;94.70;;;;;;4792260;29;20054;-89
2021/10/20 17:05:21;;;;;;;11.45;2.20;;;16.60;94.40;;;;;;4739023;30;20048;-85
2021/10/20 17:07:50;;;;;;;5.57;2.05;;;16.50;94.20;;;;;;5178686;24;20050;-84
2021/10/20 17:10:26;;;;;;;5.80;1.70;;;16.40;94.00;;;;;;4819460;29;20050;-84
2021/10/20 17:30:48;;;;;;;4.32;1.50;;;15.90;93.70;;;;;;4715706;30;20530;-86
2021/10/20 17:37:05;;;;;;;7.13;1.92;;;15.80;94.30;;;;;;4698433;30;20115;-87
2021/10/20 17:51:20;;;;;;;11.02;5.00;;;15.40;94.30;;;;;;4579869;31;20052;-88
2021/10/20 18:02:26;;;;;;;6.35;1.95;;;15.30;94.10;;;;;;4549644;31;20098;-86
2021/10/20 18:17:13;;;;;;;7.53;1.60;;;15.10;94.40;;;;;;4566650;31;20145;-86
2021/10/20 18:20:43;;;;;;;6.75;1.40;;;15.10;95.00;;;;;;4565251;31;20534;-85
2021/10/20 18:23:46;;;;;;;6.80;1.75;;;15.00;94.30;;;;;;4581736;31;20052;-85
2021/10/20 18:47:01;;;;;;;10.38;1.73;;;14.80;94.20;;;;;;4809051;29;19963;-86
2021/10/20 18:53:52;;;;;;;8.68;1.92;;;14.70;94.70;;;;;;4735729;30;20086;-85
2021/10/20 18:57:04;;;;;;;13.43;2.80;;;14.70;94.80;;;;;;4721768;30;20064;-87
2021/10/20 19:07:42;;;;;;;15.57;2.58;;;14.60;94.90;;;;;;4736670;30;20055;-85
2021/10/20 19:10:54;;;;;;;19.05;4.75;;;14.60;94.60;;;;;;4682635;30;20044;-86
2021/10/20 19:13:38;;;;;;;13.80;3.45;;;14.50;94.70;;;;;;4715928;30;20068;-90
2021/10/20 19:29:00;;;;;;;;;;;;;;;;;;;;;
2021/10/20 19:40:07;;;;;;;10.90;2.42;;;14.40;95.00;;;;;;4709073;30;20122;-87
2021/10/20 19:49:12;;;;;;;15.18;2.78;;;14.30;95.30;;;;;;5299076;24;20062;-84
2021/10/20 19:55:54;;;;;;;18.42;2.97;;;14.30;95.10;;;;;;4759375;30;20043;-90
2021/10/20 20:01:50;;;;;;;18.35;2.92;;;14.30;95.40;;;;;;4772053;30;20056;-91
2021/10/20 20:04:16;;;;;;;16.10;2.78;;;14.30;95.50;;;;;;4747109;30;20059;-89
2021/10/20 20:07:10;;;;;;;21.80;3.10;;;14.30;95.60;;;;;;4757161;30;20082;-91
2021/10/20 21:08:11;;;;;;;11.55;2.33;;;13.90;95.20;;;;;;5888578;24;20092;31
2021/10/20 22:13:26;;;;;;;19.80;3.25;;;13.40;95.70;;;;;;5002064;24;20096;-88
2021/10/20 22:16:32;;;;;;;20.80;3.40;;;13.40;95.70;;;;;;4704453;30;20160;-88
2021/10/20 22:54:25;;;;;;;10.00;2.55;;;13.20;96.10;;;;;;5589149;24;20110;-87
2021/10/20 23:05:20;;;;;;;13.20;2.47;;;13.20;95.90;;;;;;4792783;29;20553;-88
2021/10/20 23:38:13;;;;;;;10.77;2.13;;;13.10;95.80;;;;;;4674806;30;20499;-88
2021/10/20 23:40:53;;;;;;;12.95;2.22;;;13.10;95.80;;;;;;4674602;30;20067;-89
2021/10/20 23:44:13;;;;;;;10.18;2.35;;;13.10;95.80;;;;;;4683025;30;20701;-88
2021/10/20 23:54:14;;;;;;;10.07;2.10;;;13.10;95.70;;;;;;4740697;30;20067;-89
